createdAt,value
2018-02-19T00:01:13.935Z,100041
2018-02-19T00:03:44.485Z,100040
2018-02-19T00:06:15.024Z,100038
2018-02-19T00:08:45.491Z,100035
2018-02-19T00:11:15.768Z,100038
2018-02-19T00:13:46.250Z,100034
2018-02-19T00:16:16.625Z,100031
2018-02-19T00:18:47.310Z,100028
2018-02-19T00:21:17.441Z,100029
2018-02-19T00:23:48.115Z,100027
2018-02-19T00:26:18.294Z,100030
2018-02-19T00:28:48.048Z,100028
2018-02-19T00:31:30.549Z,100031
2018-02-19T00:34:13.361Z,100031
2018-02-19T00:36:43.489Z,100027
2018-02-19T00:39:14.016Z,100025
2018-02-19T00:41:45.250Z,100029
2018-02-19T00:44:15.428Z,100022
2018-02-19T00:46:46.135Z,100029
2018-02-19T00:49:17.451Z,100022
2018-02-19T00:51:47.668Z,100020
2018-02-19T00:54:18.181Z,100019
2018-02-19T00:56:48.679Z,100020
2018-02-19T00:59:18.485Z,100021
2018-02-19T01:01:49.697Z,100020
2018-02-19T01:04:20.225Z,100018
2018-02-19T01:06:50.640Z,100024
2018-02-19T01:09:20.923Z,100023
2018-02-19T01:11:51.404Z,100016
2018-02-19T01:14:21.222Z,100019
2018-02-19T01:16:51.396Z,100019
2018-02-19T01:19:21.878Z,100020
2018-02-19T01:21:52.157Z,100024
2018-02-19T01:24:22.580Z,100022
2018-02-19T01:26:53.425Z,100024
2018-02-19T01:29:23.831Z,100027
2018-02-19T01:31:54.102Z,100021
2018-02-19T01:34:24.496Z,100024
2018-02-19T01:36:54.876Z,100023
2018-02-19T01:39:25.320Z,100023
2018-02-19T01:41:55.532Z,100024
2018-02-19T01:44:25.867Z,100024
2018-02-19T01:46:56.848Z,100023
2018-02-19T01:49:27.259Z,100028
2018-02-19T01:51:57.679Z,100025
2018-02-19T01:54:28.061Z,100021
2018-02-19T01:56:58.175Z,100018
2018-02-19T01:59:28.551Z,100014
2018-02-19T02:01:58.639Z,100019
2018-02-19T02:04:28.551Z,100019
2018-02-19T02:06:58.867Z,100022
2018-02-19T02:09:28.772Z,100026
2018-02-19T02:11:58.945Z,100020
2018-02-19T02:14:29.210Z,100031
2018-02-19T02:16:59.355Z,100024
2018-02-19T02:19:29.697Z,100022
2018-02-19T02:22:00.237Z,100025
2018-02-19T02:24:31.741Z,100027
2018-02-19T02:27:02.080Z,100023
2018-02-19T02:29:32.842Z,100028
2018-02-19T02:32:02.640Z,100025
2018-02-19T02:34:32.737Z,100023
2018-02-19T02:37:03.121Z,100022
2018-02-19T02:39:32.975Z,100027
2018-02-19T02:42:03.401Z,100026
2018-02-19T02:44:33.150Z,100031
2018-02-19T02:47:03.741Z,100035
2018-02-19T02:49:34.231Z,100035
2018-02-19T02:52:04.076Z,100028
2018-02-19T02:54:34.335Z,100025
2018-02-19T02:57:04.492Z,100027
2018-02-19T02:59:34.753Z,100032
2018-02-19T03:02:05.203Z,100029
2018-02-19T03:04:35.430Z,100035
2018-02-19T03:07:05.936Z,100031
2018-02-19T03:09:36.279Z,100028
2018-02-19T03:12:06.586Z,100034
2018-02-19T03:14:36.750Z,100029
2018-02-19T03:17:07.079Z,100023
2018-02-19T03:19:37.642Z,100023
2018-02-19T03:22:08.092Z,100024
2018-02-19T03:24:38.561Z,100024
2018-02-19T03:27:08.978Z,100022
2018-02-19T03:29:39.414Z,100022
2018-02-19T03:32:11.310Z,100022
2018-02-19T03:34:41.629Z,100021
2018-02-19T03:37:12.270Z,100022
2018-02-19T03:39:43.194Z,100024
2018-02-19T03:42:13.761Z,100032
2018-02-19T03:44:44.229Z,100033
2018-02-19T03:47:14.594Z,100034
2018-02-19T03:49:44.984Z,100035
2018-02-19T03:52:15.588Z,100034
2018-02-19T03:54:46.076Z,100036
2018-02-19T03:57:16.188Z,100036
2018-02-19T03:59:47.387Z,100037
2018-02-19T04:02:17.238Z,100038
2018-02-19T04:04:47.596Z,100039
2018-02-19T04:07:17.961Z,100039
2018-02-19T04:09:48.308Z,100034
2018-02-19T04:12:18.706Z,100036
2018-02-19T04:14:48.759Z,100036
2018-02-19T04:17:18.665Z,100038
2018-02-19T04:19:49.217Z,100034
2018-02-19T04:22:19.795Z,100039
2018-02-19T04:24:49.985Z,100041
2018-02-19T04:27:20.554Z,100041
2018-02-19T04:29:51.044Z,100045
2018-02-19T04:32:21.304Z,100045
2018-02-19T04:34:51.500Z,100045
2018-02-19T04:37:22.686Z,100046
2018-02-19T04:39:53.198Z,100048
2018-02-19T04:42:24.027Z,100049
2018-02-19T04:44:56.832Z,100053
2018-02-19T04:47:27.348Z,100056
2018-02-19T04:49:57.710Z,100057
2018-02-19T04:52:28.300Z,100058
2018-02-19T04:54:58.600Z,100061
2018-02-19T04:57:28.452Z,100060
2018-02-19T04:59:58.734Z,100061
2018-02-19T05:02:29.441Z,100064
2018-02-19T05:04:59.371Z,100060
2018-02-19T05:07:29.852Z,100061
2018-02-19T05:09:59.671Z,100063
2018-02-19T05:12:30.187Z,100063
2018-02-19T05:15:00.875Z,100057
2018-02-19T05:17:31.591Z,100062
2018-02-19T05:20:01.716Z,100061
2018-02-19T05:22:32.524Z,100063
2018-02-19T05:25:02.807Z,100061
2018-02-19T05:27:32.659Z,100060
2018-02-19T05:30:02.372Z,100060
2018-02-19T05:32:32.201Z,100066
2018-02-19T05:35:02.008Z,100074
2018-02-19T05:37:31.833Z,100077
2018-02-19T05:40:01.603Z,100080
2018-02-19T05:42:31.377Z,100078
2018-02-19T05:45:01.218Z,100082
2018-02-19T05:47:31.035Z,100090
2018-02-19T05:50:00.765Z,100087
2018-02-19T05:52:30.606Z,100094
2018-02-19T05:55:00.397Z,100090
2018-02-19T05:57:30.903Z,100093
2018-02-19T06:00:01.291Z,100098
2018-02-19T06:02:31.532Z,100103
2018-02-19T06:05:01.903Z,100103
2018-02-19T06:07:32.340Z,100103
2018-02-19T06:10:03.470Z,100101
2018-02-19T06:12:33.299Z,100100
2018-02-19T06:15:03.050Z,100098
2018-02-19T06:17:32.914Z,100098
2018-02-19T06:20:02.691Z,100108
2018-02-19T06:22:32.476Z,100107
2018-02-19T06:25:02.621Z,100111
2018-02-19T06:27:32.382Z,100121
2018-02-19T06:30:02.223Z,100122
2018-02-19T06:32:32.024Z,100122
2018-02-19T06:35:01.797Z,100118
2018-02-19T06:37:31.570Z,100120
2018-02-19T06:40:01.432Z,100123
2018-02-19T06:42:31.208Z,100122
2018-02-19T06:45:00.936Z,100124
2018-02-19T06:47:30.727Z,100128
2018-02-19T06:50:00.538Z,100126
2018-02-19T06:52:30.395Z,100128
2018-02-19T06:55:00.241Z,100127
2018-02-19T06:57:30.038Z,100123
2018-02-19T06:59:59.836Z,100130
2018-02-19T07:02:29.657Z,100125
2018-02-19T07:04:59.474Z,100124
2018-02-19T07:07:29.334Z,100126
2018-02-19T07:09:59.128Z,100129
2018-02-19T07:12:28.850Z,100125
2018-02-19T07:14:58.658Z,100131
2018-02-19T07:17:28.407Z,100130
2018-02-19T07:19:58.327Z,100125
2018-02-19T07:22:28.209Z,100124
2018-02-19T07:24:58.168Z,100126
2018-02-19T07:27:27.977Z,100122
2018-02-19T07:29:57.762Z,100121
2018-02-19T07:32:27.497Z,100124
2018-02-19T07:34:57.392Z,100128
2018-02-19T07:37:29.786Z,100124
2018-02-19T07:39:59.571Z,100125
2018-02-19T07:42:29.404Z,100127
2018-02-19T07:44:59.281Z,100132
2018-02-19T07:47:29.234Z,100133
2018-02-19T07:49:59.150Z,100133
2018-02-19T07:52:28.980Z,100136
2018-02-19T07:54:58.761Z,100131
2018-02-19T07:57:28.578Z,100132
2018-02-19T07:59:58.414Z,100132
2018-02-19T08:02:28.117Z,100134
2018-02-19T08:04:57.982Z,100129
2018-02-19T08:07:27.831Z,100130
2018-02-19T08:09:57.571Z,100131
2018-02-19T08:12:27.331Z,100133
2018-02-19T08:14:57.132Z,100138
2018-02-19T08:17:26.951Z,100143
2018-02-19T08:19:56.732Z,100146
2018-02-19T08:22:26.477Z,100148
2018-02-19T08:24:56.398Z,100147
2018-02-19T08:27:26.268Z,100152
2018-02-19T08:29:56.075Z,100148
2018-02-19T08:32:25.775Z,100149
2018-02-19T08:34:55.602Z,100152
2018-02-19T08:37:25.452Z,100150
2018-02-19T08:39:55.272Z,100146
2018-02-19T08:42:25.058Z,100146
2018-02-19T08:44:54.887Z,100147
2018-02-19T08:47:24.694Z,100145
2018-02-19T08:49:54.557Z,100146
2018-02-19T08:52:24.251Z,100150
2018-02-19T08:54:54.075Z,100144
2018-02-19T08:57:23.867Z,100143
2018-02-19T08:59:53.725Z,100145
2018-02-19T09:02:23.486Z,100145
2018-02-19T09:04:53.428Z,100148
2018-02-19T09:07:23.295Z,100150
2018-02-19T09:09:53.071Z,100154
2018-02-19T09:12:22.865Z,100151
2018-02-19T09:14:52.586Z,100153
2018-02-19T09:17:22.367Z,100151
2018-02-19T09:19:52.198Z,100153
2018-02-19T09:22:22.010Z,100149
2018-02-19T09:24:51.839Z,100150
2018-02-19T09:27:21.603Z,100158
2018-02-19T09:29:51.358Z,100156
2018-02-19T09:32:21.097Z,100148
2018-02-19T09:34:50.853Z,100152
2018-02-19T09:37:20.699Z,100153
2018-02-19T09:39:50.533Z,100155
2018-02-19T09:42:20.311Z,100152
2018-02-19T09:44:50.109Z,100146
2018-02-19T09:47:19.884Z,100151
2018-02-19T09:49:49.730Z,100151
2018-02-19T09:52:19.449Z,100149
2018-02-19T09:54:49.188Z,100153
2018-02-19T09:57:18.974Z,100148
2018-02-19T09:59:48.881Z,100154
2018-02-19T10:02:18.698Z,100151
2018-02-19T10:04:48.459Z,100149
2018-02-19T10:07:18.313Z,100151
2018-02-19T10:09:48.169Z,100149
2018-02-19T10:12:17.957Z,100146
2018-02-19T10:14:47.832Z,100139
2018-02-19T10:17:17.602Z,100130
2018-02-19T10:19:47.434Z,100132
2018-02-19T10:22:17.289Z,100131
2018-02-19T10:24:47.070Z,100129
2018-02-19T10:27:16.896Z,100127
2018-02-19T10:29:46.670Z,100134
2018-02-19T10:32:16.464Z,100127
2018-02-19T10:34:46.223Z,100132
2018-02-19T10:37:16.042Z,100127
2018-02-19T10:39:45.890Z,100131
2018-02-19T10:42:15.648Z,100123
2018-02-19T10:44:45.540Z,100120
2018-02-19T10:47:15.364Z,100122
2018-02-19T10:49:45.168Z,100122
2018-02-19T10:52:14.895Z,100125
2018-02-19T10:54:44.694Z,100120
2018-02-19T10:57:14.509Z,100121
2018-02-19T10:59:44.271Z,100122
2018-02-19T11:02:14.093Z,100124
2018-02-19T11:04:43.877Z,100119
2018-02-19T11:07:13.698Z,100123
2018-02-19T11:12:58.237Z,100115
2018-02-19T11:15:31.393Z,100115
2018-02-19T11:18:01.428Z,100123
2018-02-19T11:20:32.147Z,100120
2018-02-19T11:23:03.926Z,100118
2018-02-19T11:25:39.312Z,100116
2018-02-19T11:28:10.972Z,100117
2018-02-19T11:30:41.439Z,100113
2018-02-19T11:33:15.738Z,100112
2018-02-19T11:35:48.217Z,100111
2018-02-19T11:38:24.241Z,100107
2018-02-19T11:40:56.905Z,100111
2018-02-19T11:43:28.821Z,100105
2018-02-19T11:46:00.889Z,100108
2018-02-19T11:48:33.805Z,100105
2018-02-19T11:51:06.813Z,100103
2018-02-19T11:53:37.036Z,100103
2018-02-19T11:56:07.050Z,100103
2018-02-19T11:58:39.450Z,100108
2018-02-19T12:01:11.290Z,100099
2018-02-19T12:03:42.370Z,100103
2018-02-19T12:06:38.008Z,100105
2018-02-19T12:12:03.419Z,100096
2018-02-19T12:14:36.362Z,100098
2018-02-19T12:17:19.489Z,100101
2018-02-19T12:20:05.949Z,100098
2018-02-19T12:22:43.622Z,100105
2018-02-19T12:25:19.810Z,100107
2018-02-19T12:30:57.594Z,100105
2018-02-19T12:33:27.650Z,100104
2018-02-19T12:35:57.542Z,100107
2018-02-19T12:38:28.239Z,100103
2018-02-19T12:41:01.029Z,100103
2018-02-19T12:43:30.778Z,100105
2018-02-19T12:46:00.604Z,100098
2018-02-19T12:48:30.421Z,100099
2018-02-19T12:51:00.153Z,100099
2018-02-19T12:53:29.885Z,100098
2018-02-19T12:55:59.682Z,100104
2018-02-19T12:58:29.549Z,100099
2018-02-19T13:00:59.417Z,100094
2018-02-19T13:03:29.296Z,100095
2018-02-19T13:05:59.102Z,100090
2018-02-19T13:08:28.864Z,100087
2018-02-19T13:10:58.619Z,100084
2018-02-19T13:13:28.358Z,100087
2018-02-19T13:15:58.205Z,100083
2018-02-19T13:18:28.078Z,100089
2018-02-19T13:20:57.911Z,100084
2018-02-19T13:23:27.804Z,100086
2018-02-19T13:25:57.640Z,100083
2018-02-19T13:28:27.468Z,100082
2018-02-19T13:30:57.227Z,100084
2018-02-19T13:33:26.923Z,100082
2018-02-19T13:35:56.815Z,100079
2018-02-19T13:38:26.729Z,100077
2018-02-19T13:40:56.552Z,100078
2018-02-19T13:43:40.015Z,100082
2018-02-19T13:46:09.861Z,100083
2018-02-19T13:48:39.720Z,100081
2018-02-19T13:51:09.520Z,100081
2018-02-19T13:53:39.249Z,100077
2018-02-19T13:56:09.177Z,100075
2018-02-19T13:58:38.917Z,100075
2018-02-19T14:01:08.807Z,100081
2018-02-19T14:03:38.564Z,100077
2018-02-19T14:06:08.374Z,100076
2018-02-19T14:08:38.223Z,100081
2018-02-19T14:11:07.997Z,100078
2018-02-19T14:13:37.958Z,100076
2018-02-19T14:16:07.840Z,100081
2018-02-19T14:18:37.652Z,100073
2018-02-19T14:21:07.495Z,100076
2018-02-19T14:23:37.281Z,100074
2018-02-19T14:26:07.094Z,100077
2018-02-19T14:28:36.934Z,100080
2018-02-19T14:31:06.696Z,100081
2018-02-19T14:33:36.415Z,100083
2018-02-19T14:36:06.212Z,100076
2018-02-19T14:38:36.054Z,100078
2018-02-19T14:41:05.863Z,100075
2018-02-19T14:43:35.634Z,100073
2018-02-19T14:46:05.399Z,100076
2018-02-19T14:48:35.226Z,100076
2018-02-19T14:51:04.941Z,100072
2018-02-19T14:53:34.643Z,100080
2018-02-19T14:56:04.414Z,100083
2018-02-19T14:58:34.253Z,100077
2018-02-19T15:01:04.054Z,100075
2018-02-19T15:03:33.899Z,100083
2018-02-19T15:06:03.717Z,100084
2018-02-19T15:08:33.496Z,100087
2018-02-19T15:11:03.203Z,100087
2018-02-19T15:13:32.901Z,100090
2018-02-19T15:16:02.730Z,100090
2018-02-19T15:18:32.475Z,100088
2018-02-19T15:21:02.349Z,100090
2018-02-19T15:23:32.115Z,100090
2018-02-19T15:26:01.912Z,100092
2018-02-19T15:28:31.686Z,100097
2018-02-19T15:31:01.398Z,100096
2018-02-19T15:33:31.113Z,100098
2018-02-19T15:36:00.907Z,100101
2018-02-19T15:38:30.704Z,100102
2018-02-19T15:41:00.450Z,100107
2018-02-19T15:43:30.167Z,100109
2018-02-19T15:45:59.918Z,100110
2018-02-19T15:48:29.733Z,100112
2018-02-19T15:50:59.437Z,100106
2018-02-19T15:53:29.195Z,100114
2018-02-19T15:55:58.944Z,100113
2018-02-19T15:58:28.767Z,100116
2018-02-19T16:00:58.587Z,100117
2018-02-19T16:03:28.338Z,100118
2018-02-19T16:05:58.103Z,100120
2018-02-19T16:08:27.904Z,100124
2018-02-19T16:10:57.610Z,100125
2018-02-19T16:13:27.380Z,100123
2018-02-19T16:15:58.347Z,100125
2018-02-19T16:18:29.631Z,100129
2018-02-19T16:21:01.863Z,100130
2018-02-19T16:23:34.427Z,100130
2018-02-19T16:26:06.010Z,100130
2018-02-19T16:28:37.324Z,100135
2018-02-19T16:31:10.841Z,100144
2018-02-19T16:33:42.032Z,100144
2018-02-19T16:36:12.680Z,100140
2018-02-19T16:38:43.436Z,100142
2018-02-19T16:41:16.950Z,100143
2018-02-19T16:43:50.629Z,100140
2018-02-19T16:46:22.738Z,100143
2018-02-19T16:48:54.760Z,100142
2018-02-19T16:51:26.945Z,100146
2018-02-19T16:53:57.755Z,100144
2018-02-19T16:56:28.377Z,100143
2018-02-19T16:59:00.152Z,100141
2018-02-19T17:01:33.250Z,100138
2018-02-19T17:04:04.147Z,100138
2018-02-19T17:06:37.426Z,100138
2018-02-19T17:09:11.430Z,100141
2018-02-19T17:11:42.505Z,100139
2018-02-19T17:14:13.016Z,100141
2018-02-19T17:16:43.823Z,100137
2018-02-19T17:19:15.020Z,100138
2018-02-19T17:21:46.800Z,100136
2018-02-19T17:24:19.290Z,100139
2018-02-19T17:26:50.277Z,100136
2018-02-19T17:29:30.842Z,100135
2018-02-19T17:32:03.740Z,100137
2018-02-19T17:34:34.476Z,100139
2018-02-19T17:37:06.149Z,100139
2018-02-19T17:39:38.281Z,100131
2018-02-19T17:42:09.155Z,100136
2018-02-19T17:44:41.078Z,100136
2018-02-19T17:47:12.908Z,100136
2018-02-19T17:49:45.986Z,100143
2018-02-19T17:52:23.663Z,100138
2018-02-19T17:54:57.138Z,100147
2018-02-19T17:57:28.847Z,100145
2018-02-19T17:59:59.744Z,100148
2018-02-19T18:02:32.080Z,100148
2018-02-19T18:05:02.758Z,100146
2018-02-19T18:07:35.184Z,100143
2018-02-19T18:10:09.160Z,100148
2018-02-19T18:12:39.916Z,100154
2018-02-19T18:15:10.549Z,100149
2018-02-19T18:17:49.024Z,100150
2018-02-19T18:20:23.254Z,100155
2018-02-19T18:22:56.581Z,100153
2018-02-19T18:25:29.503Z,100155
2018-02-19T18:28:00.728Z,100152
2018-02-19T18:30:36.116Z,100154
2018-02-19T18:33:11.908Z,100153
2018-02-19T18:35:43.974Z,100160
2018-02-19T18:38:15.098Z,100158
2018-02-19T18:40:47.160Z,100161
2018-02-19T18:43:18.745Z,100158
2018-02-19T18:45:50.641Z,100158
2018-02-19T18:48:22.771Z,100160
2018-02-19T18:50:53.528Z,100157
2018-02-19T18:53:24.805Z,100154
2018-02-19T18:55:57.124Z,100159
2018-02-19T18:58:30.016Z,100156
2018-02-19T19:01:02.510Z,100151
2018-02-19T19:03:34.384Z,100149
2018-02-19T19:06:07.012Z,100150
2018-02-19T19:08:49.083Z,100149
2018-02-19T19:11:20.219Z,100154
2018-02-19T19:13:51.106Z,100148
2018-02-19T19:28:06.206Z,100159
2018-02-19T19:30:36.628Z,100156
2018-02-19T19:33:08.299Z,100157
2018-02-19T19:35:38.832Z,100155
2018-02-19T19:38:10.233Z,100156
2018-02-19T19:40:41.579Z,100155
2018-02-19T19:43:15.317Z,100154
2018-02-19T19:45:46.888Z,100155
2018-02-19T19:48:20.908Z,100154
2018-02-19T19:50:51.091Z,100146
2018-02-19T19:53:22.159Z,100146
2018-02-19T19:55:53.945Z,100149
2018-02-19T19:58:26.187Z,100148
2018-02-19T20:00:56.811Z,100146
2018-02-19T20:03:27.280Z,100140
2018-02-19T20:05:59.068Z,100141
2018-02-19T20:08:31.621Z,100140
2018-02-19T20:11:08.446Z,100142
2018-02-19T20:13:39.323Z,100140
2018-02-19T20:16:10.158Z,100139
2018-02-19T20:18:40.000Z,100143
2018-02-19T20:21:09.822Z,100144
2018-02-19T20:23:39.661Z,100139
2018-02-19T20:26:09.520Z,100132
2018-02-19T20:28:39.451Z,100131
2018-02-19T20:31:09.175Z,100132
2018-02-19T20:33:39.019Z,100128
2018-02-19T20:36:08.854Z,100131
2018-02-19T20:38:38.656Z,100123
2018-02-19T20:41:08.483Z,100119
2018-02-19T20:43:38.193Z,100122
2018-02-19T20:46:07.925Z,100123
2018-02-19T20:48:37.691Z,100120
2018-02-19T20:51:07.410Z,100116
2018-02-19T20:53:37.171Z,100121
2018-02-19T20:56:06.989Z,100120
2018-02-19T20:58:36.822Z,100118
2018-02-19T21:01:06.591Z,100119
2018-02-19T21:03:36.373Z,100115
2018-02-19T21:06:06.166Z,100113
2018-02-19T21:08:35.959Z,100116
2018-02-19T21:11:05.708Z,100111
2018-02-19T21:13:35.452Z,100119
2018-02-19T21:16:05.145Z,100114
2018-02-19T21:18:34.902Z,100117
2018-02-19T21:21:04.781Z,100115
2018-02-19T21:23:34.563Z,100116
2018-02-19T21:26:04.381Z,100112
2018-02-19T21:28:34.146Z,100110
2018-02-19T21:31:03.894Z,100111
2018-02-19T21:33:33.671Z,100114
2018-02-19T21:36:03.657Z,100116
2018-02-19T21:38:33.667Z,100111
2018-02-19T21:41:03.446Z,100111
2018-02-19T21:43:33.181Z,100109
2018-02-19T21:46:03.043Z,100111
2018-02-19T21:48:32.952Z,100104
2018-02-19T21:51:02.671Z,100100
2018-02-19T21:53:32.385Z,100103
2018-02-19T21:56:02.423Z,100108
2018-02-19T21:58:32.157Z,100108
2018-02-19T22:01:02.027Z,100104
2018-02-19T22:03:31.835Z,100105
2018-02-19T22:06:01.650Z,100108
2018-02-19T22:08:31.474Z,100108
2018-02-19T22:11:01.263Z,100107
2018-02-19T22:13:30.981Z,100112
2018-02-19T22:16:00.691Z,100107
2018-02-19T22:18:30.473Z,100114
2018-02-19T22:21:00.419Z,100114
2018-02-19T22:23:30.207Z,100109
2018-02-19T22:26:00.014Z,100108
2018-02-19T22:28:29.770Z,100114
2018-02-19T22:30:59.471Z,100117
2018-02-19T22:33:29.218Z,100116
2018-02-19T22:35:58.963Z,100118
2018-02-19T22:38:28.797Z,100117
2018-02-19T22:40:58.583Z,100116
2018-02-19T22:43:28.290Z,100121
2018-02-19T22:45:58.161Z,100113
2018-02-19T22:48:27.953Z,100117
2018-02-19T22:50:57.723Z,100116
2018-02-19T22:53:27.424Z,100110
2018-02-19T22:55:57.176Z,100106
2018-02-19T22:58:27.019Z,100107
2018-02-19T23:00:56.808Z,100113
2018-02-19T23:03:26.686Z,100110
2018-02-19T23:05:56.462Z,100115
2018-02-19T23:08:26.312Z,100106
2018-02-19T23:10:56.167Z,100106
2018-02-19T23:13:25.973Z,100108
2018-02-19T23:15:55.756Z,100104
2018-02-19T23:18:25.539Z,100098
2018-02-19T23:20:55.392Z,100097
2018-02-19T23:23:25.165Z,100098
2018-02-19T23:25:54.967Z,100095
2018-02-19T23:28:24.776Z,100096
2018-02-19T23:30:54.481Z,100093
2018-02-19T23:33:24.213Z,100092
2018-02-19T23:35:53.994Z,100088
2018-02-19T23:38:23.754Z,100088
2018-02-19T23:40:53.608Z,100087
2018-02-19T23:43:23.391Z,100087
2018-02-19T23:45:53.194Z,100087
2018-02-19T23:48:23.038Z,100085
2018-02-19T23:50:52.763Z,100082
2018-02-19T23:53:22.491Z,100075
2018-02-19T23:55:52.386Z,100076
2018-02-19T23:58:22.192Z,100073
